sensor_id;sensor_type;location;lat;lon;timestamp;P1;durP1;ratioP1;P2;durP2;ratioP2
57828;SDS011;43657;52.698;6.314;2023-04-15T00:01:22;13.80;;;10.45;;
57828;SDS011;43657;52.698;6.314;2023-04-15T00:03:50;13.15;;;10.00;;
57828;SDS011;43657;52.698;6.314;2023-04-15T00:06:22;15.00;;;10.45;;
57828;SDS011;43657;52.698;6.314;2023-04-15T00:08:48;16.55;;;10.50;;
57828;SDS011;43657;52.698;6.314;2023-04-15T00:11:15;13.32;;;10.40;;
57828;SDS011;43657;52.698;6.314;2023-04-15T00:13:41;10.98;;;9.82;;
57828;SDS011;43657;52.698;6.314;2023-04-15T00:16:07;12.15;;;10.35;;
57828;SDS011;43657;52.698;6.314;2023-04-15T00:18:34;14.23;;;10.20;;
57828;SDS011;43657;52.698;6.314;2023-04-15T00:21:00;12.77;;;10.73;;
57828;SDS011;43657;52.698;6.314;2023-04-15T00:23:26;13.65;;;10.32;;
57828;SDS011;43657;52.698;6.314;2023-04-15T00:25:52;13.32;;;10.75;;
57828;SDS011;43657;52.698;6.314;2023-04-15T00:28:18;12.50;;;10.88;;
57828;SDS011;43657;52.698;6.314;2023-04-15T00:30:45;15.02;;;10.82;;
57828;SDS011;43657;52.698;6.314;2023-04-15T00:33:11;13.05;;;11.68;;
57828;SDS011;43657;52.698;6.314;2023-04-15T00:35:37;13.18;;;11.63;;
57828;SDS011;43657;52.698;6.314;2023-04-15T00:38:04;14.15;;;12.60;;
57828;SDS011;43657;52.698;6.314;2023-04-15T00:40:32;12.93;;;11.25;;
57828;SDS011;43657;52.698;6.314;2023-04-15T00:42:58;11.98;;;10.77;;
57828;SDS011;43657;52.698;6.314;2023-04-15T00:45:24;17.23;;;12.30;;
57828;SDS011;43657;52.698;6.314;2023-04-15T00:47:50;15.70;;;12.02;;
57828;SDS011;43657;52.698;6.314;2023-04-15T00:50:16;13.32;;;11.85;;
57828;SDS011;43657;52.698;6.314;2023-04-15T00:52:41;12.93;;;11.65;;
57828;SDS011;43657;52.698;6.314;2023-04-15T00:55:07;14.50;;;11.95;;
57828;SDS011;43657;52.698;6.314;2023-04-15T00:57:35;14.82;;;13.20;;
57828;SDS011;43657;52.698;6.314;2023-04-15T01:00:02;14.15;;;12.70;;
57828;SDS011;43657;52.698;6.314;2023-04-15T01:02:37;13.77;;;12.13;;
57828;SDS011;43657;52.698;6.314;2023-04-15T01:05:03;15.27;;;12.35;;
57828;SDS011;43657;52.698;6.314;2023-04-15T01:07:29;15.07;;;12.90;;
57828;SDS011;43657;52.698;6.314;2023-04-15T01:09:56;16.02;;;12.88;;
57828;SDS011;43657;52.698;6.314;2023-04-15T01:12:22;15.00;;;12.77;;
57828;SDS011;43657;52.698;6.314;2023-04-15T01:14:48;14.65;;;12.90;;
57828;SDS011;43657;52.698;6.314;2023-04-15T01:17:14;14.50;;;12.90;;
57828;SDS011;43657;52.698;6.314;2023-04-15T01:19:40;15.13;;;13.07;;
57828;SDS011;43657;52.698;6.314;2023-04-15T01:22:06;14.52;;;12.93;;
57828;SDS011;43657;52.698;6.314;2023-04-15T01:24:31;14.45;;;12.95;;
57828;SDS011;43657;52.698;6.314;2023-04-15T01:26:58;14.75;;;13.02;;
57828;SDS011;43657;52.698;6.314;2023-04-15T01:29:24;15.07;;;13.20;;
57828;SDS011;43657;52.698;6.314;2023-04-15T01:31:53;14.32;;;12.85;;
57828;SDS011;43657;52.698;6.314;2023-04-15T01:34:20;14.43;;;12.98;;
57828;SDS011;43657;52.698;6.314;2023-04-15T01:36:46;14.13;;;12.68;;
57828;SDS011;43657;52.698;6.314;2023-04-15T01:39:12;14.68;;;13.07;;
57828;SDS011;43657;52.698;6.314;2023-04-15T01:41:38;15.00;;;13.43;;
57828;SDS011;43657;52.698;6.314;2023-04-15T01:44:04;14.63;;;13.10;;
57828;SDS011;43657;52.698;6.314;2023-04-15T01:46:31;16.70;;;14.00;;
57828;SDS011;43657;52.698;6.314;2023-04-15T01:48:57;14.52;;;13.02;;
57828;SDS011;43657;52.698;6.314;2023-04-15T01:51:22;16.55;;;14.38;;
57828;SDS011;43657;52.698;6.314;2023-04-15T01:53:48;15.48;;;13.88;;
57828;SDS011;43657;52.698;6.314;2023-04-15T01:56:13;15.50;;;13.98;;
57828;SDS011;43657;52.698;6.314;2023-04-15T01:58:40;15.77;;;14.07;;
57828;SDS011;43657;52.698;6.314;2023-04-15T02:01:05;15.60;;;13.95;;
57828;SDS011;43657;52.698;6.314;2023-04-15T02:03:31;16.75;;;14.32;;
57828;SDS011;43657;52.698;6.314;2023-04-15T02:05:57;15.98;;;14.32;;
57828;SDS011;43657;52.698;6.314;2023-04-15T02:08:23;17.52;;;15.82;;
57828;SDS011;43657;52.698;6.314;2023-04-15T02:10:48;15.65;;;14.25;;
57828;SDS011;43657;52.698;6.314;2023-04-15T02:13:14;15.43;;;13.88;;
57828;SDS011;43657;52.698;6.314;2023-04-15T02:15:45;15.32;;;13.88;;
57828;SDS011;43657;52.698;6.314;2023-04-15T02:18:11;15.23;;;13.65;;
57828;SDS011;43657;52.698;6.314;2023-04-15T02:20:37;16.05;;;14.43;;
57828;SDS011;43657;52.698;6.314;2023-04-15T02:23:03;17.70;;;13.93;;
57828;SDS011;43657;52.698;6.314;2023-04-15T02:25:31;18.48;;;14.98;;
57828;SDS011;43657;52.698;6.314;2023-04-15T02:27:57;16.05;;;14.55;;
57828;SDS011;43657;52.698;6.314;2023-04-15T02:30:22;16.85;;;15.25;;
57828;SDS011;43657;52.698;6.314;2023-04-15T02:32:49;17.35;;;15.02;;
57828;SDS011;43657;52.698;6.314;2023-04-15T02:35:15;16.38;;;14.80;;
57828;SDS011;43657;52.698;6.314;2023-04-15T02:37:43;17.08;;;15.27;;
57828;SDS011;43657;52.698;6.314;2023-04-15T02:40:10;17.08;;;15.48;;
57828;SDS011;43657;52.698;6.314;2023-04-15T02:42:36;16.95;;;15.20;;
57828;SDS011;43657;52.698;6.314;2023-04-15T02:45:03;17.52;;;15.63;;
57828;SDS011;43657;52.698;6.314;2023-04-15T02:47:30;17.52;;;15.73;;
57828;SDS011;43657;52.698;6.314;2023-04-15T02:49:55;17.20;;;15.55;;
57828;SDS011;43657;52.698;6.314;2023-04-15T02:52:23;18.25;;;16.40;;
57828;SDS011;43657;52.698;6.314;2023-04-15T02:54:48;17.48;;;15.77;;
57828;SDS011;43657;52.698;6.314;2023-04-15T02:57:14;17.88;;;16.00;;
57828;SDS011;43657;52.698;6.314;2023-04-15T02:59:40;21.13;;;17.20;;
57828;SDS011;43657;52.698;6.314;2023-04-15T03:02:05;18.00;;;16.30;;
57828;SDS011;43657;52.698;6.314;2023-04-15T03:04:32;18.80;;;16.85;;
57828;SDS011;43657;52.698;6.314;2023-04-15T03:06:58;18.27;;;16.40;;
57828;SDS011;43657;52.698;6.314;2023-04-15T03:09:25;18.65;;;16.65;;
57828;SDS011;43657;52.698;6.314;2023-04-15T03:11:50;18.40;;;16.60;;
57828;SDS011;43657;52.698;6.314;2023-04-15T03:14:17;18.23;;;16.48;;
57828;SDS011;43657;52.698;6.314;2023-04-15T03:16:43;19.67;;;17.60;;
57828;SDS011;43657;52.698;6.314;2023-04-15T03:19:08;18.60;;;16.75;;
57828;SDS011;43657;52.698;6.314;2023-04-15T03:21:34;20.23;;;18.33;;
57828;SDS011;43657;52.698;6.314;2023-04-15T03:24:00;20.70;;;18.65;;
57828;SDS011;43657;52.698;6.314;2023-04-15T03:26:26;22.05;;;19.63;;
57828;SDS011;43657;52.698;6.314;2023-04-15T03:28:53;19.85;;;17.95;;
57828;SDS011;43657;52.698;6.314;2023-04-15T03:31:19;21.60;;;19.48;;
57828;SDS011;43657;52.698;6.314;2023-04-15T03:33:47;22.67;;;20.40;;
57828;SDS011;43657;52.698;6.314;2023-04-15T03:36:13;21.65;;;19.65;;
57828;SDS011;43657;52.698;6.314;2023-04-15T03:38:39;19.73;;;17.65;;
57828;SDS011;43657;52.698;6.314;2023-04-15T03:41:04;19.88;;;18.08;;
57828;SDS011;43657;52.698;6.314;2023-04-15T03:43:30;19.05;;;17.13;;
57828;SDS011;43657;52.698;6.314;2023-04-15T03:45:55;19.77;;;17.92;;
57828;SDS011;43657;52.698;6.314;2023-04-15T03:48:21;21.27;;;19.38;;
57828;SDS011;43657;52.698;6.314;2023-04-15T03:50:47;20.60;;;18.63;;
57828;SDS011;43657;52.698;6.314;2023-04-15T03:53:13;21.60;;;19.60;;
57828;SDS011;43657;52.698;6.314;2023-04-15T03:55:39;20.95;;;19.02;;
57828;SDS011;43657;52.698;6.314;2023-04-15T03:58:05;21.98;;;19.83;;
57828;SDS011;43657;52.698;6.314;2023-04-15T04:00:30;25.52;;;23.13;;
57828;SDS011;43657;52.698;6.314;2023-04-15T04:02:56;21.15;;;19.30;;
57828;SDS011;43657;52.698;6.314;2023-04-15T04:05:22;24.90;;;22.52;;
57828;SDS011;43657;52.698;6.314;2023-04-15T04:07:48;22.73;;;20.52;;
57828;SDS011;43657;52.698;6.314;2023-04-15T04:10:15;24.65;;;22.20;;
57828;SDS011;43657;52.698;6.314;2023-04-15T04:12:41;23.90;;;21.52;;
57828;SDS011;43657;52.698;6.314;2023-04-15T04:15:07;21.88;;;19.88;;
57828;SDS011;43657;52.698;6.314;2023-04-15T04:17:33;23.42;;;21.20;;
57828;SDS011;43657;52.698;6.314;2023-04-15T04:19:58;28.48;;;25.67;;
57828;SDS011;43657;52.698;6.314;2023-04-15T04:22:24;30.95;;;27.77;;
57828;SDS011;43657;52.698;6.314;2023-04-15T04:24:50;29.10;;;26.10;;
57828;SDS011;43657;52.698;6.314;2023-04-15T04:27:15;27.52;;;25.02;;
57828;SDS011;43657;52.698;6.314;2023-04-15T04:29:41;36.60;;;33.03;;
57828;SDS011;43657;52.698;6.314;2023-04-15T04:32:07;37.00;;;33.35;;
57828;SDS011;43657;52.698;6.314;2023-04-15T04:34:32;37.03;;;33.33;;
57828;SDS011;43657;52.698;6.314;2023-04-15T04:36:58;37.78;;;33.97;;
57828;SDS011;43657;52.698;6.314;2023-04-15T04:39:24;36.83;;;32.92;;
57828;SDS011;43657;52.698;6.314;2023-04-15T04:41:49;35.70;;;32.22;;
57828;SDS011;43657;52.698;6.314;2023-04-15T04:44:16;35.88;;;32.17;;
57828;SDS011;43657;52.698;6.314;2023-04-15T04:46:42;32.38;;;29.25;;
57828;SDS011;43657;52.698;6.314;2023-04-15T04:49:08;33.17;;;29.88;;
57828;SDS011;43657;52.698;6.314;2023-04-15T04:51:33;32.08;;;28.75;;
57828;SDS011;43657;52.698;6.314;2023-04-15T04:53:59;31.17;;;27.85;;
57828;SDS011;43657;52.698;6.314;2023-04-15T04:56:25;33.53;;;30.20;;
57828;SDS011;43657;52.698;6.314;2023-04-15T04:58:51;32.10;;;28.92;;
57828;SDS011;43657;52.698;6.314;2023-04-15T05:01:17;32.00;;;28.77;;
57828;SDS011;43657;52.698;6.314;2023-04-15T05:03:42;30.25;;;27.38;;
57828;SDS011;43657;52.698;6.314;2023-04-15T05:06:08;32.60;;;28.45;;
57828;SDS011;43657;52.698;6.314;2023-04-15T05:08:34;29.10;;;26.20;;
57828;SDS011;43657;52.698;6.314;2023-04-15T05:11:01;37.85;;;31.58;;
57828;SDS011;43657;52.698;6.314;2023-04-15T05:13:27;29.77;;;26.85;;
57828;SDS011;43657;52.698;6.314;2023-04-15T05:15:54;32.05;;;29.02;;
57828;SDS011;43657;52.698;6.314;2023-04-15T05:18:20;32.67;;;29.58;;
57828;SDS011;43657;52.698;6.314;2023-04-15T05:20:45;36.38;;;32.17;;
57828;SDS011;43657;52.698;6.314;2023-04-15T05:23:11;35.40;;;31.90;;
57828;SDS011;43657;52.698;6.314;2023-04-15T05:25:37;35.17;;;31.50;;
57828;SDS011;43657;52.698;6.314;2023-04-15T05:28:03;32.20;;;28.90;;
57828;SDS011;43657;52.698;6.314;2023-04-15T05:30:28;32.80;;;29.55;;
57828;SDS011;43657;52.698;6.314;2023-04-15T05:32:54;33.75;;;30.15;;
57828;SDS011;43657;52.698;6.314;2023-04-15T05:35:20;36.83;;;32.22;;
57828;SDS011;43657;52.698;6.314;2023-04-15T05:37:46;36.85;;;33.05;;
57828;SDS011;43657;52.698;6.314;2023-04-15T05:40:11;36.42;;;32.75;;
57828;SDS011;43657;52.698;6.314;2023-04-15T05:42:37;36.63;;;32.92;;
57828;SDS011;43657;52.698;6.314;2023-04-15T05:45:03;36.22;;;32.65;;
57828;SDS011;43657;52.698;6.314;2023-04-15T05:47:33;35.80;;;32.10;;
57828;SDS011;43657;52.698;6.314;2023-04-15T05:50:02;37.65;;;33.78;;
57828;SDS011;43657;52.698;6.314;2023-04-15T05:52:28;33.20;;;29.90;;
57828;SDS011;43657;52.698;6.314;2023-04-15T05:54:55;34.10;;;30.63;;
57828;SDS011;43657;52.698;6.314;2023-04-15T05:57:21;32.33;;;29.00;;
57828;SDS011;43657;52.698;6.314;2023-04-15T05:59:47;31.08;;;27.98;;
57828;SDS011;43657;52.698;6.314;2023-04-15T06:02:13;33.58;;;30.20;;
57828;SDS011;43657;52.698;6.314;2023-04-15T06:04:39;29.75;;;26.85;;
57828;SDS011;43657;52.698;6.314;2023-04-15T06:07:04;31.15;;;27.88;;
57828;SDS011;43657;52.698;6.314;2023-04-15T06:09:30;30.08;;;26.98;;
57828;SDS011;43657;52.698;6.314;2023-04-15T06:11:56;33.22;;;29.83;;
57828;SDS011;43657;52.698;6.314;2023-04-15T06:14:23;32.13;;;28.73;;
57828;SDS011;43657;52.698;6.314;2023-04-15T06:16:48;32.60;;;29.20;;
57828;SDS011;43657;52.698;6.314;2023-04-15T06:19:14;31.38;;;28.17;;
57828;SDS011;43657;52.698;6.314;2023-04-15T06:21:40;31.00;;;27.85;;
57828;SDS011;43657;52.698;6.314;2023-04-15T06:24:06;33.50;;;30.17;;
57828;SDS011;43657;52.698;6.314;2023-04-15T06:26:32;33.80;;;30.20;;
57828;SDS011;43657;52.698;6.314;2023-04-15T06:28:58;31.80;;;28.55;;
57828;SDS011;43657;52.698;6.314;2023-04-15T06:31:23;31.40;;;28.25;;
57828;SDS011;43657;52.698;6.314;2023-04-15T06:33:49;30.65;;;27.50;;
57828;SDS011;43657;52.698;6.314;2023-04-15T06:36:15;30.38;;;27.35;;
57828;SDS011;43657;52.698;6.314;2023-04-15T06:38:40;30.70;;;27.67;;
57828;SDS011;43657;52.698;6.314;2023-04-15T06:41:06;29.00;;;26.02;;
57828;SDS011;43657;52.698;6.314;2023-04-15T06:43:32;28.85;;;26.05;;
57828;SDS011;43657;52.698;6.314;2023-04-15T06:45:57;29.10;;;26.08;;
57828;SDS011;43657;52.698;6.314;2023-04-15T06:48:26;27.15;;;24.55;;
57828;SDS011;43657;52.698;6.314;2023-04-15T06:50:52;26.52;;;23.98;;
57828;SDS011;43657;52.698;6.314;2023-04-15T06:53:17;26.13;;;23.65;;
57828;SDS011;43657;52.698;6.314;2023-04-15T06:55:43;26.83;;;24.33;;
57828;SDS011;43657;52.698;6.314;2023-04-15T06:58:09;25.10;;;22.65;;
57828;SDS011;43657;52.698;6.314;2023-04-15T07:00:35;25.00;;;22.50;;
57828;SDS011;43657;52.698;6.314;2023-04-15T07:03:03;26.33;;;23.85;;
57828;SDS011;43657;52.698;6.314;2023-04-15T07:05:29;25.73;;;23.30;;
57828;SDS011;43657;52.698;6.314;2023-04-15T07:07:57;24.65;;;22.25;;
57828;SDS011;43657;52.698;6.314;2023-04-15T07:10:23;25.58;;;23.13;;
57828;SDS011;43657;52.698;6.314;2023-04-15T07:12:49;24.25;;;21.95;;
57828;SDS011;43657;52.698;6.314;2023-04-15T07:15:15;23.95;;;21.65;;
57828;SDS011;43657;52.698;6.314;2023-04-15T07:17:41;22.25;;;20.25;;
57828;SDS011;43657;52.698;6.314;2023-04-15T07:20:09;23.38;;;21.05;;
57828;SDS011;43657;52.698;6.314;2023-04-15T07:22:37;21.77;;;19.80;;
57828;SDS011;43657;52.698;6.314;2023-04-15T07:25:03;21.42;;;19.33;;
57828;SDS011;43657;52.698;6.314;2023-04-15T07:27:32;21.08;;;19.02;;
57828;SDS011;43657;52.698;6.314;2023-04-15T07:29:57;23.15;;;20.92;;
57828;SDS011;43657;52.698;6.314;2023-04-15T07:32:23;21.55;;;19.35;;
57828;SDS011;43657;52.698;6.314;2023-04-15T07:34:48;20.27;;;18.27;;
57828;SDS011;43657;52.698;6.314;2023-04-15T07:37:14;20.92;;;18.98;;
57828;SDS011;43657;52.698;6.314;2023-04-15T07:39:40;17.50;;;15.85;;
57828;SDS011;43657;52.698;6.314;2023-04-15T07:42:05;18.75;;;16.85;;
57828;SDS011;43657;52.698;6.314;2023-04-15T07:44:31;17.92;;;16.02;;
57828;SDS011;43657;52.698;6.314;2023-04-15T07:46:57;17.27;;;15.57;;
57828;SDS011;43657;52.698;6.314;2023-04-15T07:49:22;17.27;;;15.68;;
57828;SDS011;43657;52.698;6.314;2023-04-15T07:51:48;16.25;;;14.75;;
57828;SDS011;43657;52.698;6.314;2023-04-15T07:54:14;17.45;;;15.75;;
57828;SDS011;43657;52.698;6.314;2023-04-15T07:56:40;14.65;;;13.25;;
57828;SDS011;43657;52.698;6.314;2023-04-15T07:59:08;14.75;;;13.38;;
57828;SDS011;43657;52.698;6.314;2023-04-15T08:01:34;14.73;;;13.00;;
57828;SDS011;43657;52.698;6.314;2023-04-15T08:04:00;15.20;;;13.50;;
57828;SDS011;43657;52.698;6.314;2023-04-15T08:06:26;14.20;;;12.90;;
57828;SDS011;43657;52.698;6.314;2023-04-15T08:08:52;13.70;;;12.30;;
57828;SDS011;43657;52.698;6.314;2023-04-15T08:11:19;12.38;;;11.18;;
57828;SDS011;43657;52.698;6.314;2023-04-15T08:13:45;13.40;;;12.05;;
57828;SDS011;43657;52.698;6.314;2023-04-15T08:16:18;13.52;;;12.15;;
57828;SDS011;43657;52.698;6.314;2023-04-15T08:18:49;12.82;;;11.57;;
57828;SDS011;43657;52.698;6.314;2023-04-15T08:21:17;12.43;;;11.23;;
57828;SDS011;43657;52.698;6.314;2023-04-15T08:23:47;11.05;;;9.95;;
57828;SDS011;43657;52.698;6.314;2023-04-15T08:28:43;12.10;;;10.90;;
57828;SDS011;43657;52.698;6.314;2023-04-15T08:31:09;11.25;;;10.15;;
57828;SDS011;43657;52.698;6.314;2023-04-15T08:33:35;12.18;;;10.93;;
57828;SDS011;43657;52.698;6.314;2023-04-15T08:36:01;11.95;;;10.75;;
57828;SDS011;43657;52.698;6.314;2023-04-15T08:38:27;11.18;;;9.50;;
57828;SDS011;43657;52.698;6.314;2023-04-15T08:40:53;11.10;;;9.98;;
57828;SDS011;43657;52.698;6.314;2023-04-15T08:43:30;11.18;;;10.07;;
57828;SDS011;43657;52.698;6.314;2023-04-15T08:46:02;11.18;;;10.07;;
57828;SDS011;43657;52.698;6.314;2023-04-15T08:48:31;11.27;;;10.18;;
57828;SDS011;43657;52.698;6.314;2023-04-15T08:50:57;10.45;;;9.50;;
57828;SDS011;43657;52.698;6.314;2023-04-15T08:53:32;11.23;;;10.13;;
57828;SDS011;43657;52.698;6.314;2023-04-15T08:55:58;10.70;;;9.55;;
57828;SDS011;43657;52.698;6.314;2023-04-15T08:58:30;10.38;;;9.38;;
57828;SDS011;43657;52.698;6.314;2023-04-15T09:00:57;10.73;;;9.73;;
57828;SDS011;43657;52.698;6.314;2023-04-15T09:03:23;11.07;;;9.25;;
57828;SDS011;43657;52.698;6.314;2023-04-15T09:05:49;10.70;;;9.70;;
57828;SDS011;43657;52.698;6.314;2023-04-15T09:08:15;10.85;;;9.55;;
57828;SDS011;43657;52.698;6.314;2023-04-15T09:10:41;11.75;;;8.85;;
57828;SDS011;43657;52.698;6.314;2023-04-15T09:13:06;9.40;;;8.23;;
57828;SDS011;43657;52.698;6.314;2023-04-15T09:15:38;9.85;;;8.85;;
57828;SDS011;43657;52.698;6.314;2023-04-15T09:18:04;8.27;;;7.35;;
57828;SDS011;43657;52.698;6.314;2023-04-15T09:20:30;7.85;;;7.05;;
57828;SDS011;43657;52.698;6.314;2023-04-15T09:23:12;7.55;;;6.45;;
57828;SDS011;43657;52.698;6.314;2023-04-15T09:25:39;6.80;;;6.05;;
57828;SDS011;43657;52.698;6.314;2023-04-15T09:28:09;8.02;;;6.07;;
57828;SDS011;43657;52.698;6.314;2023-04-15T09:30:35;6.10;;;5.50;;
57828;SDS011;43657;52.698;6.314;2023-04-15T09:33:02;6.05;;;4.60;;
57828;SDS011;43657;52.698;6.314;2023-04-15T09:35:35;6.38;;;5.28;;
57828;SDS011;43657;52.698;6.314;2023-04-15T09:42:57;6.75;;;5.25;;
57828;SDS011;43657;52.698;6.314;2023-04-15T09:45:30;7.10;;;5.05;;
57828;SDS011;43657;52.698;6.314;2023-04-15T09:47:59;6.10;;;4.97;;
57828;SDS011;43657;52.698;6.314;2023-04-15T09:50:58;5.72;;;5.10;;
57828;SDS011;43657;52.698;6.314;2023-04-15T09:53:25;6.70;;;5.13;;
57828;SDS011;43657;52.698;6.314;2023-04-15T09:55:53;6.88;;;4.60;;
57828;SDS011;43657;52.698;6.314;2023-04-15T09:58:24;5.00;;;4.18;;
57828;SDS011;43657;52.698;6.314;2023-04-15T10:00:54;4.93;;;3.60;;
57828;SDS011;43657;52.698;6.314;2023-04-15T10:03:25;5.70;;;4.25;;
57828;SDS011;43657;52.698;6.314;2023-04-15T10:05:56;5.03;;;3.10;;
57828;SDS011;43657;52.698;6.314;2023-04-15T10:08:26;5.38;;;3.63;;
57828;SDS011;43657;52.698;6.314;2023-04-15T10:10:54;4.63;;;3.10;;
57828;SDS011;43657;52.698;6.314;2023-04-15T10:13:24;5.18;;;3.08;;
57828;SDS011;43657;52.698;6.314;2023-04-15T10:18:21;4.82;;;3.58;;
57828;SDS011;43657;52.698;6.314;2023-04-15T10:20:50;5.63;;;4.00;;
57828;SDS011;43657;52.698;6.314;2023-04-15T10:23:16;6.65;;;3.97;;
57828;SDS011;43657;52.698;6.314;2023-04-15T10:25:42;6.80;;;4.25;;
57828;SDS011;43657;52.698;6.314;2023-04-15T10:28:10;4.97;;;4.10;;
57828;SDS011;43657;52.698;6.314;2023-04-15T10:30:36;6.60;;;4.53;;
57828;SDS011;43657;52.698;6.314;2023-04-15T10:33:03;5.32;;;4.03;;
57828;SDS011;43657;52.698;6.314;2023-04-15T10:35:30;7.38;;;4.43;;
57828;SDS011;43657;52.698;6.314;2023-04-15T10:37:58;8.48;;;4.85;;
57828;SDS011;43657;52.698;6.314;2023-04-15T10:40:25;7.95;;;4.55;;
57828;SDS011;43657;52.698;6.314;2023-04-15T10:42:55;6.57;;;4.53;;
57828;SDS011;43657;52.698;6.314;2023-04-15T10:45:24;6.05;;;4.25;;
57828;SDS011;43657;52.698;6.314;2023-04-15T10:47:55;6.47;;;3.90;;
57828;SDS011;43657;52.698;6.314;2023-04-15T10:50:26;8.23;;;4.70;;
57828;SDS011;43657;52.698;6.314;2023-04-15T10:52:54;6.78;;;3.20;;
57828;SDS011;43657;52.698;6.314;2023-04-15T10:55:21;7.13;;;2.90;;
57828;SDS011;43657;52.698;6.314;2023-04-15T10:57:52;5.03;;;3.50;;
57828;SDS011;43657;52.698;6.314;2023-04-15T11:00:19;5.05;;;2.70;;
57828;SDS011;43657;52.698;6.314;2023-04-15T11:02:58;5.35;;;2.80;;
57828;SDS011;43657;52.698;6.314;2023-04-15T11:08:19;5.13;;;2.67;;
57828;SDS011;43657;52.698;6.314;2023-04-15T11:11:05;6.65;;;2.90;;
57828;SDS011;43657;52.698;6.314;2023-04-15T11:13:31;4.60;;;2.50;;
57828;SDS011;43657;52.698;6.314;2023-04-15T11:15:57;5.30;;;2.38;;
57828;SDS011;43657;52.698;6.314;2023-04-15T11:18:26;4.50;;;2.10;;
57828;SDS011;43657;52.698;6.314;2023-04-15T11:20:55;5.20;;;2.05;;
57828;SDS011;43657;52.698;6.314;2023-04-15T11:23:31;3.05;;;2.10;;
57828;SDS011;43657;52.698;6.314;2023-04-15T11:26:02;3.65;;;1.83;;
57828;SDS011;43657;52.698;6.314;2023-04-15T11:28:33;3.30;;;2.03;;
57828;SDS011;43657;52.698;6.314;2023-04-15T11:31:06;2.53;;;1.83;;
57828;SDS011;43657;52.698;6.314;2023-04-15T11:33:35;2.53;;;1.90;;
57828;SDS011;43657;52.698;6.314;2023-04-15T11:36:01;2.20;;;1.80;;
57828;SDS011;43657;52.698;6.314;2023-04-15T11:38:28;2.20;;;2.00;;
57828;SDS011;43657;52.698;6.314;2023-04-15T11:40:54;3.30;;;2.25;;
57828;SDS011;43657;52.698;6.314;2023-04-15T11:43:20;2.85;;;2.22;;
57828;SDS011;43657;52.698;6.314;2023-04-15T11:45:54;2.67;;;2.00;;
57828;SDS011;43657;52.698;6.314;2023-04-15T11:48:28;3.88;;;2.28;;
57828;SDS011;43657;52.698;6.314;2023-04-15T11:53:24;3.03;;;2.50;;
57828;SDS011;43657;52.698;6.314;2023-04-15T11:56:01;4.60;;;2.45;;
57828;SDS011;43657;52.698;6.314;2023-04-15T11:58:28;3.17;;;2.38;;
57828;SDS011;43657;52.698;6.314;2023-04-15T12:00:55;2.75;;;2.40;;
57828;SDS011;43657;52.698;6.314;2023-04-15T12:03:25;3.50;;;2.28;;
57828;SDS011;43657;52.698;6.314;2023-04-15T12:06:30;3.97;;;2.30;;
57828;SDS011;43657;52.698;6.314;2023-04-15T12:16:27;4.15;;;2.50;;
57828;SDS011;43657;52.698;6.314;2023-04-15T12:18:54;3.88;;;2.50;;
57828;SDS011;43657;52.698;6.314;2023-04-15T12:21:25;5.57;;;2.65;;
57828;SDS011;43657;52.698;6.314;2023-04-15T12:24:01;3.97;;;2.50;;
57828;SDS011;43657;52.698;6.314;2023-04-15T12:26:36;4.57;;;2.80;;
57828;SDS011;43657;52.698;6.314;2023-04-15T12:29:13;5.97;;;2.97;;
57828;SDS011;43657;52.698;6.314;2023-04-15T12:31:46;4.10;;;2.72;;
57828;SDS011;43657;52.698;6.314;2023-04-15T12:34:28;3.78;;;2.42;;
57828;SDS011;43657;52.698;6.314;2023-04-15T12:36:59;4.60;;;2.40;;
57828;SDS011;43657;52.698;6.314;2023-04-15T12:39:26;4.60;;;2.30;;
57828;SDS011;43657;52.698;6.314;2023-04-15T12:41:53;4.85;;;2.50;;
57828;SDS011;43657;52.698;6.314;2023-04-15T12:44:21;5.40;;;2.60;;
57828;SDS011;43657;52.698;6.314;2023-04-15T12:46:48;5.10;;;2.47;;
57828;SDS011;43657;52.698;6.314;2023-04-15T12:49:14;8.38;;;3.10;;
57828;SDS011;43657;52.698;6.314;2023-04-15T12:51:40;7.85;;;3.28;;
57828;SDS011;43657;52.698;6.314;2023-04-15T12:54:06;5.05;;;2.88;;
57828;SDS011;43657;52.698;6.314;2023-04-15T12:56:32;5.88;;;3.20;;
57828;SDS011;43657;52.698;6.314;2023-04-15T12:58:58;6.43;;;2.72;;
57828;SDS011;43657;52.698;6.314;2023-04-15T13:01:23;4.97;;;2.55;;
57828;SDS011;43657;52.698;6.314;2023-04-15T13:03:49;8.20;;;2.85;;
57828;SDS011;43657;52.698;6.314;2023-04-15T13:06:15;5.25;;;2.60;;
57828;SDS011;43657;52.698;6.314;2023-04-15T13:08:41;4.93;;;2.80;;
57828;SDS011;43657;52.698;6.314;2023-04-15T13:11:07;6.00;;;2.80;;
57828;SDS011;43657;52.698;6.314;2023-04-15T13:13:32;6.95;;;2.75;;
57828;SDS011;43657;52.698;6.314;2023-04-15T13:15:58;5.55;;;2.40;;
57828;SDS011;43657;52.698;6.314;2023-04-15T13:18:24;4.38;;;2.17;;
57828;SDS011;43657;52.698;6.314;2023-04-15T13:20:50;6.13;;;2.90;;
57828;SDS011;43657;52.698;6.314;2023-04-15T13:23:16;6.85;;;2.70;;
57828;SDS011;43657;52.698;6.314;2023-04-15T13:25:42;6.25;;;2.80;;
57828;SDS011;43657;52.698;6.314;2023-04-15T13:28:08;7.70;;;2.80;;
57828;SDS011;43657;52.698;6.314;2023-04-15T13:30:36;8.38;;;2.55;;
57828;SDS011;43657;52.698;6.314;2023-04-15T13:33:02;7.18;;;2.65;;
57828;SDS011;43657;52.698;6.314;2023-04-15T13:35:28;8.05;;;3.15;;
57828;SDS011;43657;52.698;6.314;2023-04-15T13:37:53;7.10;;;2.45;;
57828;SDS011;43657;52.698;6.314;2023-04-15T13:40:20;11.20;;;3.05;;
57828;SDS011;43657;52.698;6.314;2023-04-15T13:42:46;8.85;;;2.80;;
57828;SDS011;43657;52.698;6.314;2023-04-15T13:45:11;9.63;;;2.92;;
57828;SDS011;43657;52.698;6.314;2023-04-15T13:47:37;7.50;;;2.58;;
57828;SDS011;43657;52.698;6.314;2023-04-15T13:50:03;9.82;;;2.60;;
57828;SDS011;43657;52.698;6.314;2023-04-15T13:52:29;13.48;;;3.05;;
57828;SDS011;43657;52.698;6.314;2023-04-15T13:54:55;6.57;;;2.30;;
57828;SDS011;43657;52.698;6.314;2023-04-15T13:57:20;8.07;;;2.13;;
57828;SDS011;43657;52.698;6.314;2023-04-15T13:59:46;7.28;;;2.55;;
57828;SDS011;43657;52.698;6.314;2023-04-15T14:02:11;4.38;;;1.63;;
57828;SDS011;43657;52.698;6.314;2023-04-15T14:04:37;7.53;;;2.33;;
57828;SDS011;43657;52.698;6.314;2023-04-15T14:07:03;7.95;;;2.00;;
57828;SDS011;43657;52.698;6.314;2023-04-15T14:09:28;9.20;;;2.03;;
57828;SDS011;43657;52.698;6.314;2023-04-15T14:11:54;9.32;;;2.67;;
57828;SDS011;43657;52.698;6.314;2023-04-15T14:14:20;7.43;;;2.05;;
57828;SDS011;43657;52.698;6.314;2023-04-15T14:16:46;6.85;;;2.42;;
57828;SDS011;43657;52.698;6.314;2023-04-15T14:19:12;9.85;;;2.35;;
57828;SDS011;43657;52.698;6.314;2023-04-15T14:21:38;10.32;;;2.67;;
57828;SDS011;43657;52.698;6.314;2023-04-15T14:24:03;9.15;;;2.75;;
57828;SDS011;43657;52.698;6.314;2023-04-15T14:26:29;8.77;;;2.20;;
57828;SDS011;43657;52.698;6.314;2023-04-15T14:28:55;6.53;;;2.28;;
57828;SDS011;43657;52.698;6.314;2023-04-15T14:31:23;9.65;;;2.97;;
57828;SDS011;43657;52.698;6.314;2023-04-15T14:33:51;9.50;;;2.58;;
57828;SDS011;43657;52.698;6.314;2023-04-15T14:36:17;10.13;;;2.40;;
57828;SDS011;43657;52.698;6.314;2023-04-15T14:38:42;7.38;;;2.28;;
57828;SDS011;43657;52.698;6.314;2023-04-15T14:41:08;9.15;;;2.25;;
57828;SDS011;43657;52.698;6.314;2023-04-15T14:43:34;13.30;;;2.65;;
57828;SDS011;43657;52.698;6.314;2023-04-15T14:46:00;9.07;;;2.50;;
57828;SDS011;43657;52.698;6.314;2023-04-15T14:48:26;8.65;;;2.50;;
57828;SDS011;43657;52.698;6.314;2023-04-15T14:50:52;8.30;;;2.40;;
57828;SDS011;43657;52.698;6.314;2023-04-15T14:53:18;11.90;;;2.50;;